createdAt,value
2024-02-18T00:01:36.802Z,100624.91
2024-02-18T00:06:39.972Z,100691.00
2024-02-18T00:11:42.965Z,100587.56
2024-02-18T00:16:46.558Z,100606.19
2024-02-18T00:21:49.501Z,100569.66
2024-02-18T00:26:58.429Z,100608.78
2024-02-18T00:32:02.571Z,100656.81
2024-02-18T00:37:05.626Z,100613.09
2024-02-18T00:42:11.388Z,100622.84
2024-02-18T00:47:14.282Z,100697.09
2024-02-18T00:52:17.341Z,100677.50
2024-02-18T00:57:20.580Z,100606.34
2024-02-18T01:02:23.632Z,100650.09
2024-02-18T01:07:27.081Z,100555.47
2024-02-18T01:12:30.036Z,100686.53
2024-02-18T01:17:32.969Z,100551.59
2024-02-18T01:22:36.197Z,100584.50
2024-02-18T01:27:39.221Z,100647.69
2024-02-18T01:32:42.071Z,100596.03
2024-02-18T01:37:45.597Z,100510.50
2024-02-18T01:42:48.422Z,100607.97
2024-02-18T01:47:51.549Z,100585.28
2024-02-18T01:52:55.446Z,100592.19
2024-02-18T01:57:58.502Z,100521.41
2024-02-18T02:03:03.102Z,100658.00
2024-02-18T02:08:06.799Z,100631.50
2024-02-18T02:13:09.993Z,100658.41
2024-02-18T02:18:13.157Z,100574.31
2024-02-18T02:23:16.209Z,100635.63
2024-02-18T02:28:26.561Z,100753.28
2024-02-18T02:33:29.374Z,100565.91
2024-02-18T02:38:33.964Z,100683.00
2024-02-18T02:43:37.013Z,100636.47
2024-02-18T02:48:40.152Z,100667.44
2024-02-18T02:53:43.254Z,100668.13
2024-02-18T02:58:46.311Z,100635.25
2024-02-18T03:03:49.210Z,100662.66
2024-02-18T03:08:52.127Z,100572.78
2024-02-18T03:13:55.088Z,100598.25
2024-02-18T03:18:58.043Z,100658.13
2024-02-18T03:24:00.972Z,100652.31
2024-02-18T03:29:05.015Z,100574.78
2024-02-18T03:34:08.293Z,100673.28
2024-02-18T03:39:11.483Z,100688.69
2024-02-18T03:44:15.329Z,100694.66
2024-02-18T03:49:18.202Z,100557.09
2024-02-18T03:54:21.050Z,100610.50
2024-02-18T03:59:23.923Z,100550.00
2024-02-18T04:04:26.875Z,100687.09
2024-02-18T04:09:29.875Z,100583.13
2024-02-18T04:14:32.925Z,100570.44
2024-02-18T04:19:35.884Z,100638.00
2024-02-18T04:24:40.617Z,100557.78
2024-02-18T04:29:43.687Z,100641.38
2024-02-18T04:34:46.986Z,100503.53
2024-02-18T04:39:49.828Z,100691.94
2024-02-18T04:44:52.689Z,100618.75
2024-02-18T04:49:56.212Z,100581.50
2024-02-18T04:54:59.619Z,100605.78
2024-02-18T05:00:02.476Z,100641.59
2024-02-18T05:05:05.824Z,100556.09
2024-02-18T05:10:09.068Z,100675.97
2024-02-18T05:15:12.132Z,100653.72
2024-02-18T05:20:15.869Z,100623.91
2024-02-18T05:25:18.746Z,100591.91
2024-02-18T05:30:21.891Z,100670.88
2024-02-18T05:35:24.715Z,100667.00
2024-02-18T05:40:27.780Z,100621.63
2024-02-18T05:45:32.332Z,100589.19
2024-02-18T05:50:35.284Z,100573.03
2024-02-18T05:55:38.174Z,100583.53
2024-02-18T06:00:41.708Z,100599.94
2024-02-18T06:05:44.873Z,100599.94
2024-02-18T06:10:48.323Z,100638.91
2024-02-18T06:15:52.302Z,100676.47
2024-02-18T06:20:55.439Z,100564.81
2024-02-18T06:25:59.824Z,100593.69
2024-02-18T06:31:04.078Z,100669.59
2024-02-18T06:36:09.789Z,100562.44
2024-02-18T06:41:13.334Z,100648.00
2024-02-18T06:46:16.610Z,100632.97
2024-02-18T06:51:20.266Z,100611.03
2024-02-18T06:56:23.109Z,100650.75
2024-02-18T07:01:26.217Z,100658.16
2024-02-18T07:06:29.201Z,100495.81
2024-02-18T07:11:32.368Z,100535.78
2024-02-18T07:16:35.192Z,100582.72
2024-02-18T07:21:38.013Z,100578.06
2024-02-18T07:26:40.867Z,100569.38
2024-02-18T07:31:44.208Z,100615.72
2024-02-18T07:36:48.103Z,100594.91
2024-02-18T07:41:51.278Z,100633.66
2024-02-18T07:46:55.623Z,100635.91
2024-02-18T07:51:58.807Z,100618.16
2024-02-18T07:57:01.871Z,100655.59
2024-02-18T08:02:05.115Z,100596.78
2024-02-18T08:07:08.234Z,100651.81
2024-02-18T08:12:11.284Z,100630.31
2024-02-18T08:17:14.320Z,100559.16
2024-02-18T08:22:18.510Z,100598.75
2024-02-18T08:27:21.583Z,100632.94
2024-02-18T08:32:24.483Z,100634.59
2024-02-18T08:37:27.330Z,100651.06
2024-02-18T08:42:30.257Z,100685.28
2024-02-18T08:47:33.094Z,100621.28
2024-02-18T08:52:36.909Z,100720.78
2024-02-18T08:57:39.780Z,100697.94
2024-02-18T09:02:42.613Z,100693.53
2024-02-18T09:07:45.700Z,100667.81
2024-02-18T09:12:48.769Z,100664.41
2024-02-18T09:17:51.881Z,100689.06
2024-02-18T09:22:54.963Z,100732.63
2024-02-18T09:27:58.184Z,100655.03
2024-02-18T09:33:01.059Z,100676.19
2024-02-18T09:38:10.298Z,100651.34
2024-02-18T09:43:15.838Z,100664.66
2024-02-18T09:48:21.370Z,100733.75
2024-02-18T09:53:24.416Z,100686.78
2024-02-18T09:58:27.840Z,100676.53
2024-02-18T10:03:31.193Z,100636.97
2024-02-18T10:08:56.997Z,100708.03
2024-02-18T10:14:00.290Z,100726.59
2024-02-18T10:19:03.504Z,100729.91
2024-02-18T10:24:07.659Z,100624.84
2024-02-18T10:29:13.926Z,100669.09
2024-02-18T10:34:19.199Z,100638.59
2024-02-18T10:39:25.026Z,100613.09
2024-02-18T10:44:28.292Z,100695.16
2024-02-18T10:49:40.568Z,100610.19
2024-02-18T10:55:13.002Z,100672.16
2024-02-18T11:00:20.433Z,100626.38
2024-02-18T11:05:25.205Z,100677.16
2024-02-18T11:10:30.702Z,100728.63
2024-02-18T11:15:34.425Z,100661.53
2024-02-18T11:20:38.044Z,100619.44
2024-02-18T11:25:41.193Z,100587.88
2024-02-18T11:30:44.246Z,100606.69
2024-02-18T11:35:48.192Z,100594.66
2024-02-18T11:40:53.756Z,100570.81
2024-02-18T11:45:56.972Z,100601.00
2024-02-18T11:51:00.062Z,100539.63
2024-02-18T11:56:03.176Z,100547.38
2024-02-18T12:01:07.468Z,100506.19
2024-02-18T12:06:11.466Z,100475.59
2024-02-18T12:11:15.454Z,100540.03
2024-02-18T12:16:19.448Z,100491.28
2024-02-18T12:21:22.510Z,100406.34
2024-02-18T12:26:25.964Z,100448.59
2024-02-18T12:31:29.755Z,100407.50
2024-02-18T12:36:32.787Z,100396.09
2024-02-18T12:41:35.885Z,100404.19
2024-02-18T12:46:39.174Z,100392.50
2024-02-18T12:51:44.088Z,100460.13
2024-02-18T12:56:48.805Z,100461.06
2024-02-18T13:01:51.939Z,100409.63
2024-02-18T13:07:05.976Z,100423.44
2024-02-18T13:12:09.192Z,100372.75
2024-02-18T13:17:13.356Z,100433.88
2024-02-18T13:22:17.371Z,100398.59
2024-02-18T13:27:20.239Z,100365.81
2024-02-18T13:32:23.065Z,100461.56
2024-02-18T13:37:26.366Z,100401.88
2024-02-18T13:42:29.299Z,100431.72
2024-02-18T13:47:32.524Z,100381.38
2024-02-18T13:52:35.865Z,100358.94
2024-02-18T13:57:38.691Z,100450.19
2024-02-18T14:02:42.466Z,100374.69
2024-02-18T14:07:45.557Z,100414.88
2024-02-18T14:12:49.363Z,100340.66
2024-02-18T14:17:59.370Z,100308.66
2024-02-18T14:23:02.706Z,100350.00
2024-02-18T14:28:10.543Z,100331.41
2024-02-18T14:33:13.585Z,100302.63
2024-02-18T14:38:16.522Z,100326.34
2024-02-18T14:43:19.430Z,100338.81
2024-02-18T14:48:23.730Z,100239.31
2024-02-18T14:53:27.537Z,100347.53
2024-02-18T14:58:30.700Z,100305.63
2024-02-18T15:03:33.824Z,100277.28
2024-02-18T15:08:36.740Z,100312.00
2024-02-18T15:13:39.899Z,100236.97
2024-02-18T15:18:42.825Z,100274.28
2024-02-18T15:23:45.921Z,100288.31
2024-02-18T15:28:48.708Z,100258.03
2024-02-18T15:33:51.817Z,100223.34
2024-02-18T15:38:54.841Z,100214.06
2024-02-18T15:43:58.392Z,100203.38
2024-02-18T15:49:01.395Z,100134.56
2024-02-18T15:54:05.159Z,100211.94
2024-02-18T15:59:09.460Z,100264.06
2024-02-18T16:04:13.510Z,100223.97
2024-02-18T16:09:16.631Z,100232.91
2024-02-18T16:14:19.792Z,100120.38
2024-02-18T16:19:22.740Z,100226.41
2024-02-18T16:24:26.017Z,100185.50
2024-02-18T16:29:31.345Z,100193.81
2024-02-18T16:34:36.148Z,100169.16
2024-02-18T16:39:41.685Z,100184.28
2024-02-18T16:44:44.623Z,100193.72
2024-02-18T16:49:47.804Z,100213.94
2024-02-18T16:54:50.721Z,100184.81
2024-02-18T16:59:53.593Z,100203.88
2024-02-18T17:04:56.433Z,100178.66
2024-02-18T17:09:59.622Z,100189.66
2024-02-18T17:15:02.866Z,100145.97
2024-02-18T17:20:06.736Z,100137.19
2024-02-18T17:25:10.204Z,100155.06
2024-02-18T17:30:13.698Z,100128.22
2024-02-18T17:35:16.832Z,100112.44
2024-02-18T17:40:21.861Z,100147.69
2024-02-18T17:45:24.702Z,100165.63
2024-02-18T17:50:27.972Z,100193.56
2024-02-18T17:55:32.796Z,100186.94
2024-02-18T18:00:36.725Z,100175.72
2024-02-18T18:05:39.720Z,100184.00
2024-02-18T18:10:42.472Z,100167.63
2024-02-18T18:15:45.335Z,100153.53
2024-02-18T18:20:48.155Z,100185.38
2024-02-18T18:25:50.924Z,100168.00
2024-02-18T18:30:54.374Z,100185.53
2024-02-18T18:35:57.384Z,100190.69
2024-02-18T18:41:00.250Z,100178.19
2024-02-18T18:46:03.245Z,100155.50
2024-02-18T18:51:06.164Z,100161.66
2024-02-18T18:56:11.869Z,100216.56
2024-02-18T19:01:17.235Z,100166.25
2024-02-18T19:06:20.173Z,100211.72
2024-02-18T19:11:23.292Z,100167.03
2024-02-18T19:16:32.900Z,100199.81
2024-02-18T19:21:39.256Z,100162.00
2024-02-18T19:26:44.027Z,100199.38
2024-02-18T19:31:47.193Z,100165.22
2024-02-18T19:36:52.220Z,100150.88
2024-02-18T19:41:55.362Z,100126.44
2024-02-18T19:46:58.210Z,100172.63
2024-02-18T19:52:01.383Z,100182.81
2024-02-18T19:57:05.077Z,100208.94
2024-02-18T20:02:08.742Z,100176.09
2024-02-18T20:07:11.671Z,100151.84
2024-02-18T20:12:15.005Z,100153.41
2024-02-18T20:17:17.856Z,100176.56
2024-02-18T20:22:20.840Z,100181.44
2024-02-18T20:27:23.931Z,100185.97
2024-02-18T20:32:28.747Z,100224.75
2024-02-18T20:37:31.560Z,100238.50
2024-02-18T20:42:34.487Z,100195.09
2024-02-18T20:47:37.297Z,100232.03
2024-02-18T20:52:40.225Z,100216.13
2024-02-18T20:57:45.838Z,100250.03
2024-02-18T21:02:49.080Z,100234.97
2024-02-18T21:07:52.756Z,100266.19
2024-02-18T21:12:55.683Z,100211.91
2024-02-18T21:17:58.520Z,100239.13
2024-02-18T21:23:01.363Z,100247.19
2024-02-18T21:28:05.795Z,100202.16
2024-02-18T21:33:08.997Z,100297.25
2024-02-18T21:38:12.308Z,100267.09
2024-02-18T21:43:15.306Z,100279.31
2024-02-18T21:48:18.511Z,100318.22
2024-02-18T21:53:21.343Z,100337.31
2024-02-18T21:58:24.897Z,100217.66
2024-02-18T22:03:27.710Z,100304.53
2024-02-18T22:08:30.569Z,100257.22
2024-02-18T22:13:34.085Z,100246.09
2024-02-18T22:18:42.372Z,100279.94
2024-02-18T22:23:45.239Z,100277.41
2024-02-18T22:28:48.295Z,100310.34
2024-02-18T22:33:51.574Z,100239.59
2024-02-18T22:38:54.649Z,100258.28
2024-02-18T22:43:57.687Z,100327.66
2024-02-18T22:49:00.627Z,100283.88
2024-02-18T22:54:03.593Z,100296.59
2024-02-18T22:59:06.689Z,100317.00
2024-02-18T23:04:09.715Z,100308.53
2024-02-18T23:09:12.597Z,100360.69
2024-02-18T23:14:15.892Z,100282.22
2024-02-18T23:19:19.071Z,100273.56
2024-02-18T23:24:22.200Z,100312.44
2024-02-18T23:29:25.230Z,100346.50
2024-02-18T23:34:28.977Z,100330.41
2024-02-18T23:39:32.034Z,100390.56
2024-02-18T23:44:35.299Z,100372.34
2024-02-18T23:49:38.772Z,100391.06
2024-02-18T23:54:41.968Z,100391.41
2024-02-18T23:59:44.881Z,100384.78
